createdAt,value
2017-12-12T00:01:38.460Z,83.18
2017-12-12T00:04:06.802Z,83.55
2017-12-12T00:06:35.143Z,83.50
2017-12-12T00:09:03.503Z,83.41
2017-12-12T00:11:31.887Z,84.74
2017-12-12T00:14:00.254Z,84.46
2017-12-12T00:16:28.599Z,84.31
2017-12-12T00:18:56.942Z,84.82
2017-12-12T00:21:25.271Z,84.40
2017-12-12T00:23:53.631Z,83.23
2017-12-12T00:26:21.963Z,82.85
2017-12-12T00:28:50.308Z,82.80
2017-12-12T00:31:18.664Z,82.83
2017-12-12T00:33:47.000Z,82.44
2017-12-12T00:36:15.400Z,81.67
2017-12-12T00:38:43.735Z,81.59
2017-12-12T00:41:12.068Z,81.92
2017-12-12T00:43:40.419Z,82.22
2017-12-12T00:46:08.762Z,81.49
2017-12-12T00:48:37.087Z,81.12
2017-12-12T00:51:05.435Z,82.84
2017-12-12T00:53:33.815Z,81.40
2017-12-12T00:56:02.153Z,82.00
2017-12-12T00:58:30.487Z,81.43
2017-12-12T01:00:58.835Z,81.17
2017-12-12T01:06:24.046Z,81.38
2017-12-12T01:08:52.393Z,80.46
2017-12-12T01:11:20.776Z,82.29
2017-12-12T01:13:49.124Z,81.04
2017-12-12T01:16:17.468Z,82.50
2017-12-12T01:18:45.811Z,83.21
2017-12-12T01:21:14.152Z,83.04
2017-12-12T01:23:42.535Z,82.27
2017-12-12T01:26:10.877Z,81.83
2017-12-12T01:28:39.258Z,81.62
2017-12-12T01:34:04.398Z,82.59
2017-12-12T01:36:32.778Z,80.68
2017-12-12T01:39:01.114Z,79.52
2017-12-12T01:41:29.448Z,80.62
2017-12-12T01:43:57.788Z,77.86
2017-12-12T01:46:26.132Z,77.69
2017-12-12T01:48:54.527Z,77.93
2017-12-12T01:51:22.879Z,80.50
2017-12-12T01:53:51.210Z,85.42
2017-12-12T01:56:19.549Z,87.13
2017-12-12T01:58:47.905Z,86.87
2017-12-12T02:01:16.266Z,87.68
2017-12-12T02:03:44.611Z,86.53
2017-12-12T02:06:12.949Z,86.04
2017-12-12T02:08:41.299Z,86.04
2017-12-12T02:11:09.639Z,86.22
2017-12-12T02:13:38.013Z,86.22
2017-12-12T02:16:06.354Z,85.38
2017-12-12T02:18:34.731Z,85.74
2017-12-12T02:21:03.093Z,85.40
2017-12-12T02:23:31.491Z,86.29
2017-12-12T02:25:59.850Z,85.20
2017-12-12T02:28:28.187Z,85.83
2017-12-12T02:30:56.667Z,87.13
2017-12-12T02:33:24.997Z,88.52
2017-12-12T02:35:53.340Z,88.68
2017-12-12T02:38:21.800Z,89.08
2017-12-12T02:40:50.164Z,88.14
2017-12-12T02:43:18.510Z,88.42
2017-12-12T02:45:46.863Z,87.21
2017-12-12T02:48:15.239Z,88.30
2017-12-12T02:50:43.615Z,89.46
2017-12-12T02:53:11.940Z,88.81
2017-12-12T02:55:40.299Z,88.54
2017-12-12T02:58:08.631Z,87.00
2017-12-12T03:00:36.973Z,88.10
2017-12-12T03:03:05.341Z,88.44
2017-12-12T03:05:33.678Z,88.25
2017-12-12T03:08:02.068Z,88.77
2017-12-12T03:10:30.401Z,87.41
2017-12-12T03:12:58.733Z,87.34
2017-12-12T03:15:27.111Z,86.68
2017-12-12T03:17:56.259Z,88.76
2017-12-12T03:20:24.621Z,87.90
2017-12-12T03:22:52.954Z,88.15
2017-12-12T03:25:21.290Z,88.84
2017-12-12T03:27:49.622Z,88.62
2017-12-12T03:30:17.956Z,88.39
2017-12-12T03:32:46.310Z,88.74
2017-12-12T03:35:14.638Z,89.06
2017-12-12T03:37:42.973Z,87.84
2017-12-12T03:40:11.299Z,88.15
2017-12-12T03:42:39.627Z,88.19
2017-12-12T03:45:07.989Z,87.44
2017-12-12T03:47:36.320Z,86.67
2017-12-12T03:50:04.656Z,87.08
2017-12-12T03:52:32.982Z,88.08
2017-12-12T03:55:01.316Z,86.98
2017-12-12T03:57:29.681Z,87.16
2017-12-12T03:59:58.005Z,86.93
2017-12-12T04:02:26.344Z,87.09
2017-12-12T04:04:54.680Z,87.92
2017-12-12T04:07:23.054Z,87.68
2017-12-12T04:09:51.406Z,86.33
2017-12-12T04:12:19.749Z,87.34
2017-12-12T04:14:48.082Z,88.90
2017-12-12T04:17:16.406Z,89.26
2017-12-12T04:19:44.768Z,89.69
2017-12-12T04:22:14.848Z,88.77
2017-12-12T04:24:43.218Z,88.01
2017-12-12T04:27:11.549Z,87.54
2017-12-12T04:29:39.883Z,87.21
2017-12-12T04:32:08.254Z,87.58
2017-12-12T04:34:36.600Z,88.62
2017-12-12T04:37:04.930Z,88.75
2017-12-12T04:39:33.269Z,89.37
2017-12-12T04:42:01.595Z,89.92
2017-12-12T04:44:29.964Z,89.87
2017-12-12T04:46:58.295Z,90.17
2017-12-12T04:49:26.617Z,89.21
2017-12-12T04:51:54.953Z,91.19
2017-12-12T04:54:23.286Z,90.62
2017-12-12T04:56:51.675Z,91.11
2017-12-12T04:59:20.026Z,89.94
2017-12-12T05:01:48.355Z,90.03
2017-12-12T05:04:16.687Z,90.10
2017-12-12T05:06:45.027Z,90.63
2017-12-12T05:09:13.395Z,91.31
2017-12-12T05:11:41.733Z,90.09
2017-12-12T05:14:10.070Z,89.87
2017-12-12T05:16:38.394Z,90.37
2017-12-12T05:19:06.721Z,90.85
2017-12-12T05:21:35.095Z,90.20
2017-12-12T05:24:03.422Z,89.85
2017-12-12T05:26:31.764Z,90.23
2017-12-12T05:29:00.102Z,89.73
2017-12-12T05:31:28.435Z,89.21
2017-12-12T05:33:56.795Z,87.89
2017-12-12T05:36:25.122Z,87.98
2017-12-12T05:38:53.450Z,89.97
2017-12-12T05:41:21.786Z,89.92
2017-12-12T05:43:50.123Z,90.14
2017-12-12T05:46:18.486Z,90.28
2017-12-12T05:48:46.827Z,88.76
2017-12-12T05:51:15.160Z,87.26
2017-12-12T05:53:43.570Z,88.49
2017-12-12T05:56:11.903Z,90.13
2017-12-12T05:58:40.273Z,89.18
2017-12-12T06:01:08.662Z,88.62
2017-12-12T06:03:37.001Z,92.72
2017-12-12T06:06:05.331Z,90.08
2017-12-12T06:08:33.669Z,89.51
2017-12-12T06:11:02.047Z,88.37
2017-12-12T06:13:30.375Z,89.96
2017-12-12T06:15:58.702Z,88.79
2017-12-12T06:18:27.041Z,89.46
2017-12-12T06:20:55.366Z,90.42
2017-12-12T06:23:23.752Z,89.54
2017-12-12T06:25:52.082Z,90.41
2017-12-12T06:28:20.411Z,90.49
2017-12-12T06:30:48.755Z,90.08
2017-12-12T06:33:17.094Z,88.78
2017-12-12T06:35:45.458Z,87.28
2017-12-12T06:38:13.792Z,87.08
2017-12-12T06:40:42.124Z,88.56
2017-12-12T06:43:10.450Z,88.45
2017-12-12T06:45:38.832Z,90.23
2017-12-12T06:48:07.189Z,89.12
2017-12-12T06:50:35.527Z,89.55
2017-12-12T06:53:03.908Z,89.19
2017-12-12T06:55:32.257Z,89.17
2017-12-12T06:58:00.589Z,88.85
2017-12-12T07:00:28.967Z,87.80
2017-12-12T07:02:57.315Z,88.38
2017-12-12T07:05:25.647Z,87.14
2017-12-12T07:07:54.027Z,86.06
2017-12-12T07:10:22.371Z,85.36
2017-12-12T07:12:50.750Z,86.29
2017-12-12T07:15:22.113Z,85.91
2017-12-12T07:17:50.847Z,85.17
2017-12-12T07:20:19.304Z,84.08
2017-12-12T07:22:48.733Z,84.17
2017-12-12T07:25:17.081Z,84.37
2017-12-12T07:27:48.354Z,85.67
2017-12-12T07:30:16.763Z,85.73
2017-12-12T07:32:45.108Z,84.42
2017-12-12T07:35:13.532Z,84.73
2017-12-12T07:37:41.857Z,84.20
2017-12-12T07:40:10.243Z,83.16
2017-12-12T07:42:38.718Z,82.62
2017-12-12T07:45:07.058Z,83.53
2017-12-12T07:47:35.404Z,83.75
2017-12-12T07:50:03.734Z,83.31
2017-12-12T07:52:32.082Z,82.65
2017-12-12T07:55:00.481Z,83.43
2017-12-12T07:57:28.834Z,84.19
2017-12-12T07:59:57.179Z,83.84
2017-12-12T08:02:25.514Z,83.15
2017-12-12T08:04:53.857Z,81.96
2017-12-12T08:07:22.243Z,83.85
2017-12-12T08:09:50.594Z,81.97
2017-12-12T08:12:18.940Z,83.27
2017-12-12T08:14:47.268Z,83.87
2017-12-12T08:17:15.667Z,83.07
2017-12-12T08:19:44.034Z,83.26
2017-12-12T08:22:12.370Z,84.07
2017-12-12T08:24:40.706Z,83.83
2017-12-12T08:27:09.048Z,83.61
2017-12-12T08:29:37.398Z,82.94
2017-12-12T08:32:05.867Z,83.12
2017-12-12T08:34:34.239Z,82.65
2017-12-12T08:37:02.599Z,82.87
2017-12-12T08:39:30.953Z,83.39
2017-12-12T08:41:59.828Z,83.94
2017-12-12T08:44:28.275Z,83.36
2017-12-12T08:46:56.610Z,84.86
2017-12-12T08:49:24.961Z,82.93
2017-12-12T08:51:53.315Z,82.93
2017-12-12T08:54:21.663Z,83.83
2017-12-12T08:56:50.042Z,85.34
2017-12-12T08:59:18.383Z,84.40
2017-12-12T09:01:46.729Z,85.29
2017-12-12T09:04:15.112Z,84.56
2017-12-12T09:06:43.451Z,85.14
2017-12-12T09:09:11.907Z,84.40
2017-12-12T09:11:40.275Z,84.65
2017-12-12T09:14:08.620Z,85.74
2017-12-12T09:16:36.962Z,85.41
2017-12-12T09:19:05.308Z,84.15
2017-12-12T09:21:33.698Z,84.66
2017-12-12T09:24:02.050Z,85.00
2017-12-12T09:26:30.406Z,83.70
2017-12-12T09:28:58.756Z,84.14
2017-12-12T09:31:27.114Z,83.44
2017-12-12T09:33:55.479Z,83.97
2017-12-12T09:36:23.815Z,85.40
2017-12-12T09:38:52.159Z,84.67
2017-12-12T09:41:20.499Z,84.75
2017-12-12T09:43:48.846Z,83.55
2017-12-12T09:46:17.231Z,82.39
2017-12-12T09:48:45.566Z,85.64
2017-12-12T09:51:13.913Z,84.86
2017-12-12T09:53:42.253Z,84.81
2017-12-12T09:56:10.591Z,83.38
2017-12-12T09:58:38.967Z,81.25
2017-12-12T10:01:07.313Z,80.95
2017-12-12T10:03:35.653Z,80.83
2017-12-12T10:06:03.995Z,82.74
2017-12-12T10:08:32.358Z,82.04
2017-12-12T10:11:00.735Z,82.05
2017-12-12T10:13:29.074Z,82.68
2017-12-12T10:15:57.468Z,83.41
2017-12-12T10:18:25.816Z,83.86
2017-12-12T10:20:54.166Z,84.34
2017-12-12T10:23:22.572Z,82.81
2017-12-12T10:25:50.907Z,82.68
2017-12-12T10:28:19.284Z,81.87
2017-12-12T10:30:47.621Z,82.11
2017-12-12T10:33:15.985Z,81.52
2017-12-12T10:35:44.350Z,81.22
2017-12-12T10:38:12.697Z,79.54
2017-12-12T10:40:41.048Z,80.02
2017-12-12T10:43:09.391Z,79.45
2017-12-12T10:45:37.731Z,80.94
2017-12-12T10:48:06.134Z,81.07
2017-12-12T10:50:34.479Z,80.23
2017-12-12T10:53:02.813Z,79.83
2017-12-12T10:55:31.154Z,79.48
2017-12-12T10:57:59.503Z,79.25
2017-12-12T11:00:27.869Z,80.52
2017-12-12T11:02:56.218Z,79.79
2017-12-12T11:05:24.559Z,79.46
2017-12-12T11:07:52.920Z,80.44
2017-12-12T11:10:21.281Z,79.04
2017-12-12T11:12:49.843Z,79.72
2017-12-12T11:15:18.189Z,80.25
2017-12-12T11:17:46.549Z,79.39
2017-12-12T11:20:14.893Z,79.81
2017-12-12T11:22:43.226Z,80.96
2017-12-12T11:25:11.608Z,81.71
2017-12-12T11:27:39.958Z,82.63
2017-12-12T11:30:08.298Z,81.87
2017-12-12T11:32:36.636Z,82.74
2017-12-12T11:35:04.968Z,81.92
2017-12-12T11:37:35.196Z,81.31
2017-12-12T11:40:03.534Z,82.46
2017-12-12T11:42:31.886Z,81.20
2017-12-12T11:45:00.240Z,81.29
2017-12-12T11:47:28.569Z,81.42
2017-12-12T11:49:57.062Z,82.84
2017-12-12T11:52:25.727Z,82.37
2017-12-12T11:54:54.352Z,83.10
2017-12-12T11:57:22.775Z,81.36
2017-12-12T11:59:51.107Z,83.80
2017-12-12T12:02:19.610Z,83.59
2017-12-12T12:04:47.939Z,84.02
2017-12-12T12:07:16.292Z,83.20
2017-12-12T12:09:44.654Z,84.12
2017-12-12T12:12:13.119Z,83.58
2017-12-12T12:14:41.495Z,82.60
2017-12-12T12:17:09.855Z,81.98
2017-12-12T12:19:38.204Z,80.90
2017-12-12T12:22:06.619Z,81.12
2017-12-12T12:24:35.042Z,80.29
2017-12-12T12:27:03.416Z,81.92
2017-12-12T12:29:31.913Z,81.41
2017-12-12T12:32:01.119Z,80.93
2017-12-12T12:34:29.531Z,81.35
2017-12-12T12:36:57.913Z,81.56
2017-12-12T12:39:26.287Z,79.79
2017-12-12T12:42:11.400Z,80.95
2017-12-12T12:44:39.971Z,83.56
2017-12-12T12:47:08.381Z,82.77
2017-12-12T12:49:36.823Z,81.77
2017-12-12T12:52:05.179Z,81.23
2017-12-12T12:54:33.541Z,81.10
2017-12-12T12:57:01.887Z,80.98
2017-12-12T12:59:30.271Z,78.31
2017-12-12T13:01:58.688Z,80.87
2017-12-12T13:04:27.112Z,79.98
2017-12-12T13:09:24.766Z,80.41
2017-12-12T13:11:53.138Z,81.67
2017-12-12T13:14:21.484Z,80.92
2017-12-12T13:16:49.872Z,81.25
2017-12-12T13:19:18.258Z,81.63
2017-12-12T13:21:46.559Z,81.74
2017-12-12T13:24:14.921Z,82.28
2017-12-12T13:26:43.267Z,84.17
2017-12-12T13:29:11.607Z,84.11
2017-12-12T13:31:40.157Z,85.78
2017-12-12T13:34:08.521Z,83.12
2017-12-12T13:36:36.888Z,83.29
2017-12-12T13:39:05.236Z,82.37
2017-12-12T13:41:33.605Z,83.59
2017-12-12T13:44:01.939Z,83.98
2017-12-12T13:46:30.276Z,83.80
2017-12-12T13:48:58.651Z,83.50
2017-12-12T13:51:26.996Z,84.23
2017-12-12T13:53:55.326Z,83.45
2017-12-12T13:56:23.664Z,83.18
2017-12-12T13:58:52.015Z,83.37
2017-12-12T14:01:20.395Z,84.25
2017-12-12T14:03:48.730Z,85.41
2017-12-12T14:06:17.198Z,81.38
2017-12-12T14:08:46.718Z,81.92
2017-12-12T14:11:21.742Z,80.30
2017-12-12T14:13:56.727Z,80.43
2017-12-12T14:16:25.122Z,81.55
2017-12-12T14:18:53.752Z,82.45
2017-12-12T14:21:22.144Z,80.25
2017-12-12T14:23:50.515Z,80.92
2017-12-12T14:26:18.911Z,80.16
2017-12-12T14:28:47.270Z,79.50
2017-12-12T14:31:15.611Z,80.50
2017-12-12T14:33:43.960Z,78.25
2017-12-12T14:36:12.295Z,79.25
2017-12-12T14:38:40.671Z,78.80
2017-12-12T14:41:09.037Z,78.86
2017-12-12T14:43:37.384Z,79.14
2017-12-12T14:46:05.763Z,79.21
2017-12-12T14:48:34.144Z,78.04
2017-12-12T14:51:02.608Z,78.82
2017-12-12T14:53:30.979Z,79.07
2017-12-12T14:55:59.314Z,80.34
2017-12-12T14:58:27.661Z,79.75
2017-12-12T15:00:56.009Z,80.09
2017-12-12T15:03:24.527Z,78.72
2017-12-12T15:05:52.867Z,78.91
2017-12-12T15:08:21.206Z,78.37
2017-12-12T15:10:49.565Z,77.79
2017-12-12T15:13:17.910Z,78.08
2017-12-12T15:15:46.274Z,79.10
2017-12-12T15:18:14.610Z,79.19
2017-12-12T15:20:42.945Z,78.92
2017-12-12T15:23:11.284Z,82.24
2017-12-12T15:25:39.652Z,80.69
2017-12-12T15:28:08.026Z,82.21
2017-12-12T15:30:36.379Z,81.36
2017-12-12T15:33:04.736Z,82.24
2017-12-12T15:35:33.137Z,81.17
2017-12-12T15:38:01.502Z,82.02
2017-12-12T15:40:29.926Z,80.41
2017-12-12T15:42:58.434Z,82.04
2017-12-12T15:45:26.805Z,81.60
2017-12-12T15:47:55.334Z,81.44
2017-12-12T15:50:24.895Z,81.40
2017-12-12T15:52:53.241Z,81.86
2017-12-12T15:55:21.577Z,81.66
2017-12-12T15:57:49.915Z,81.29
2017-12-12T16:00:18.442Z,81.58
2017-12-12T16:02:46.914Z,81.30
2017-12-12T16:05:15.259Z,79.70
2017-12-12T16:07:43.597Z,81.02
2017-12-12T16:10:11.961Z,79.49
2017-12-12T16:12:40.322Z,78.87
2017-12-12T16:15:10.010Z,79.27
2017-12-12T16:17:38.368Z,79.14
2017-12-12T16:20:06.763Z,79.00
2017-12-12T16:22:35.111Z,78.66
2017-12-12T16:25:03.472Z,80.29
2017-12-12T16:27:31.834Z,79.64
2017-12-12T16:30:00.178Z,80.74
2017-12-12T16:32:28.531Z,81.42
2017-12-12T16:34:56.875Z,80.84
2017-12-12T16:37:25.220Z,81.75
2017-12-12T16:39:53.707Z,80.62
2017-12-12T16:42:22.034Z,80.57
2017-12-12T16:44:50.370Z,80.84
2017-12-12T16:47:18.707Z,81.47
2017-12-12T16:49:47.054Z,81.00
2017-12-12T16:52:15.448Z,81.54
2017-12-12T16:54:43.778Z,80.26
2017-12-12T16:57:12.186Z,80.03
2017-12-12T16:59:40.531Z,79.21
2017-12-12T17:02:08.870Z,79.36
2017-12-12T17:04:37.336Z,79.46
2017-12-12T17:07:05.684Z,80.08
2017-12-12T17:12:08.595Z,78.95
2017-12-12T17:14:36.934Z,78.94
2017-12-12T17:17:05.318Z,78.94
2017-12-12T17:19:33.662Z,78.39
2017-12-12T17:22:02.000Z,77.83
2017-12-12T17:24:30.344Z,78.79
2017-12-12T17:26:58.682Z,77.17
2017-12-12T17:29:27.053Z,78.25
2017-12-12T17:31:55.451Z,80.57
2017-12-12T17:34:29.476Z,79.85
2017-12-12T17:36:57.829Z,78.80
2017-12-12T17:39:26.157Z,79.11
2017-12-12T17:41:54.498Z,80.01
2017-12-12T17:44:22.838Z,78.59
2017-12-12T17:46:51.226Z,78.24
2017-12-12T17:49:19.578Z,79.12
2017-12-12T17:51:47.914Z,78.41
2017-12-12T17:54:16.250Z,76.28
2017-12-12T17:56:44.594Z,77.65
2017-12-12T17:59:13.012Z,77.35
2017-12-12T18:01:41.355Z,79.21
2017-12-12T18:04:09.763Z,79.23
2017-12-12T18:06:38.158Z,80.07
2017-12-12T18:09:06.511Z,79.39
2017-12-12T18:11:34.972Z,79.66
2017-12-12T18:14:03.362Z,82.15
2017-12-12T18:16:31.718Z,81.35
2017-12-12T18:19:00.054Z,80.23
2017-12-12T18:21:28.395Z,81.68
2017-12-12T18:23:56.787Z,81.38
2017-12-12T18:26:25.122Z,82.55
2017-12-12T18:28:53.495Z,81.75
2017-12-12T18:31:21.844Z,82.67
2017-12-12T18:33:50.203Z,82.90
2017-12-12T18:36:18.597Z,82.86
2017-12-12T18:38:46.948Z,83.08
2017-12-12T18:41:15.290Z,82.76
2017-12-12T18:43:43.686Z,83.30
2017-12-12T18:46:12.048Z,82.05
2017-12-12T18:48:40.582Z,82.13
2017-12-12T18:51:08.922Z,81.50
2017-12-12T18:53:37.272Z,81.70
2017-12-12T18:56:05.622Z,81.00
2017-12-12T18:58:34.015Z,80.46
2017-12-12T19:01:02.388Z,81.52
2017-12-12T19:03:30.758Z,79.98
2017-12-12T19:05:59.098Z,81.60
2017-12-12T19:08:27.450Z,81.04
2017-12-12T19:10:55.791Z,81.84
2017-12-12T19:13:24.169Z,80.96
2017-12-12T19:15:52.499Z,81.91
2017-12-12T19:18:20.855Z,81.60
2017-12-12T19:20:49.194Z,82.20
2017-12-12T19:23:17.587Z,82.85
2017-12-12T19:25:46.175Z,83.37
2017-12-12T19:28:14.611Z,82.51
2017-12-12T19:30:42.964Z,82.88
2017-12-12T19:33:11.351Z,81.73
2017-12-12T19:35:40.357Z,82.06
2017-12-12T19:38:08.757Z,84.54
2017-12-12T19:40:37.162Z,83.75
2017-12-12T19:43:05.517Z,84.33
2017-12-12T19:45:33.897Z,82.83
2017-12-12T19:48:02.290Z,83.03
2017-12-12T19:50:30.682Z,84.12
2017-12-12T19:52:59.060Z,83.78
2017-12-12T19:55:27.425Z,83.90
2017-12-12T19:57:56.837Z,83.87
2017-12-12T20:00:25.185Z,84.71
2017-12-12T20:02:57.343Z,84.77
2017-12-12T20:05:25.750Z,83.51
2017-12-12T20:07:54.155Z,83.69
2017-12-12T20:10:22.501Z,83.21
2017-12-12T20:12:51.031Z,82.83
2017-12-12T20:15:19.470Z,82.59
2017-12-12T20:17:48.225Z,81.93
2017-12-12T20:20:16.694Z,81.92
2017-12-12T20:22:45.057Z,82.51
2017-12-12T20:25:13.506Z,83.34
2017-12-12T20:27:41.888Z,82.61
2017-12-12T20:30:10.263Z,82.17
2017-12-12T20:32:38.795Z,80.64
2017-12-12T20:35:07.221Z,80.13
2017-12-12T20:37:36.885Z,79.97
2017-12-12T20:40:05.293Z,79.71
2017-12-12T20:42:33.737Z,79.10
2017-12-12T20:45:02.114Z,79.33
2017-12-12T20:47:30.754Z,79.50
2017-12-12T20:49:59.102Z,78.82
2017-12-12T20:52:27.446Z,78.53
2017-12-12T20:54:55.798Z,78.51
2017-12-12T20:57:24.174Z,78.61
2017-12-12T20:59:52.542Z,78.24
2017-12-12T21:02:20.992Z,78.05
2017-12-12T21:04:49.429Z,77.80
2017-12-12T21:07:23.436Z,77.05
2017-12-12T21:09:51.864Z,77.82
2017-12-12T21:12:20.222Z,78.85
2017-12-12T21:14:48.594Z,79.23
2017-12-12T21:17:17.025Z,78.70
2017-12-12T21:19:45.389Z,79.42
2017-12-12T21:22:13.860Z,79.65
2017-12-12T21:24:42.223Z,81.95
2017-12-12T21:27:10.549Z,81.89
2017-12-12T21:29:38.902Z,81.14
2017-12-12T21:32:07.264Z,81.21
2017-12-12T21:34:35.718Z,80.06
2017-12-12T21:37:05.000Z,79.41
2017-12-12T21:39:34.271Z,78.68
2017-12-12T21:42:02.662Z,79.69
2017-12-12T21:44:31.161Z,79.46
2017-12-12T21:46:59.552Z,80.99
2017-12-12T21:49:27.904Z,81.74
2017-12-12T21:51:56.230Z,81.22
2017-12-12T21:54:24.582Z,81.96
2017-12-12T21:56:52.936Z,82.05
2017-12-12T21:59:21.324Z,82.50
2017-12-12T22:01:49.683Z,82.20
2017-12-12T22:04:18.040Z,80.07
2017-12-12T22:06:46.576Z,82.12
2017-12-12T22:09:14.932Z,82.34
2017-12-12T22:11:43.279Z,81.62
2017-12-12T22:14:11.628Z,83.49
2017-12-12T22:16:39.962Z,85.27
2017-12-12T22:19:08.466Z,84.87
2017-12-12T22:21:36.813Z,85.71
2017-12-12T22:24:10.697Z,85.70
2017-12-12T22:26:39.046Z,86.56
2017-12-12T22:29:07.463Z,86.24
2017-12-12T22:31:35.806Z,86.06
2017-12-12T22:34:04.179Z,85.85
2017-12-12T22:39:08.950Z,84.51
2017-12-12T22:41:37.290Z,84.41
2017-12-12T22:44:05.626Z,83.82
2017-12-12T22:46:33.995Z,83.88
2017-12-12T22:49:02.340Z,83.56
2017-12-12T22:51:30.682Z,83.81
2017-12-12T22:53:59.025Z,83.65
2017-12-12T22:56:27.400Z,83.05
2017-12-12T22:58:55.733Z,82.99
2017-12-12T23:01:24.078Z,82.75
2017-12-12T23:03:52.420Z,81.58
2017-12-12T23:06:20.755Z,82.53
2017-12-12T23:08:50.826Z,83.09
2017-12-12T23:11:19.142Z,82.78
2017-12-12T23:13:47.478Z,82.78
2017-12-12T23:16:15.823Z,82.68
2017-12-12T23:18:44.162Z,82.38
2017-12-12T23:21:12.578Z,82.22
2017-12-12T23:23:40.908Z,82.52
2017-12-12T23:26:09.245Z,82.90
2017-12-12T23:28:37.585Z,82.07
2017-12-12T23:31:05.927Z,82.53
2017-12-12T23:33:34.334Z,82.81
2017-12-12T23:36:02.668Z,83.01
2017-12-12T23:38:31.007Z,81.82
2017-12-12T23:40:59.346Z,81.53
2017-12-12T23:43:27.696Z,82.33
2017-12-12T23:45:56.063Z,82.40
2017-12-12T23:48:24.395Z,81.02
2017-12-12T23:50:52.722Z,82.14
2017-12-12T23:53:21.053Z,83.27
2017-12-12T23:55:49.398Z,83.22
2017-12-12T23:58:17.864Z,82.39
